Wetterdaten: Woche 26.07.10 - 01.08.10 (KW30)
Datum Zeit Temp. Innen Temp. Aussen UV X Diff Temp. Feuchte Inne Feuchte Auss Sonnenschein Luftdruck Regen ab 0,1 Wind Sonnenschein Windben
26.07.2010 00:00 23,0 C 16,0 C 0,0 UV-I 0,0 C 62 % 93 % 0 % 1017,9 hPa 0,0 l/m 0,1 km/h (0 Bft) 0,00 h 0,2 km/h (0 Bft)
26.07.2010 01:00 23,0 C 16,0 C 0,0 UV-I 0,0 C 62 % 94 % 0 % 1017,7 hPa 0,0 l/m 0,0 km/h (0 Bft) 0,00 h 0,0 km/h (0 Bft)
26.07.2010 02:00 23,0 C 16,0 C 0,0 UV-I 0,0 C 62 % 94 % 0 % 1017,3 hPa 0,0 l/m 0,0 km/h (0 Bft) 0,00 h 0,0 km/h (0 Bft)
26.07.2010 03:00 22,9 C 16,1 C 0,0 UV-I 0,0 C 62 % 94 % 0 % 1016,9 hPa 0,0 l/m 0,0 km/h (0 Bft) 0,00 h 0,1 km/h (0 Bft)
26.07.2010 04:00 22,9 C 16,2 C 0,0 UV-I 0,0 C 62 % 94 % 0 % 1016,4 hPa 0,0 l/m 0,0 km/h (0 Bft) 0,00 h 0,3 km/h (0 Bft)
26.07.2010 05:00 22,7 C 16,0 C 0,0 UV-I 0,0 C 63 % 94 % 0 % 1016,2 hPa 0,0 l/m 0,0 km/h (0 Bft) 0,00 h 0,0 km/h (0 Bft)
26.07.2010 06:00 22,7 C 15,9 C 0,0 UV-I 0,0 C 63 % 94 % 0 % 1015,8 hPa 0,0 l/m 0,0 km/h (0 Bft) 0,00 h 0,0 km/h (0 Bft)
26.07.2010 07:00 22,7 C 16,1 C 0,6 UV-I 0,1 C 63 % 95 % 3 % 1015,7 hPa 0,1 l/m 0,1 km/h (0 Bft) 0,00 h 0,1 km/h (0 Bft)
26.07.2010 08:00 22,9 C 17,0 C 1,1 UV-I 0,8 C 64 % 94 % 23 % 1015,8 hPa 0,2 l/m 0,4 km/h (0 Bft) 0,00 h 1,4 km/h (1 Bft)
26.07.2010 09:00 22,9 C 17,0 C 0,7 UV-I 0,0 C 64 % 93 % 0 % 1015,7 hPa 1,3 l/m 0,1 km/h (0 Bft) 0,00 h 0,0 km/h (0 Bft)
26.07.2010 10:00 22,9 C 16,8 C 0,3 UV-I 0,0 C 64 % 93 % 0 % 1015,3 hPa 5,1 l/m 0,5 km/h (0 Bft) 0,00 h 1,3 km/h (1 Bft)
26.07.2010 11:00 22,8 C 16,6 C 0,1 UV-I 0,0 C 65 % 94 % 0 % 1014,8 hPa 9,4 l/m 1,1 km/h (1 Bft) 0,00 h 3,7 km/h (1 Bft)
26.07.2010 12:00 22,6 C 16,7 C 1,3 UV-I 0,1 C 65 % 94 % 2 % 1014,5 hPa 1,8 l/m 3,9 km/h (1 Bft) 0,00 h 6,7 km/h (2 Bft)
26.07.2010 13:00 22,8 C 17,3 C 5,8 UV-I 2,0 C 64 % 94 % 51 % 1014,7 hPa 0,6 l/m 8,3 km/h (2 Bft) 0,37 h 13,5 km/h (3 Bft)
26.07.2010 14:00 23,8 C 18,4 C 5,2 UV-I 2,7 C 62 % 91 % 62 % 1015,5 hPa 0,8 l/m 6,8 km/h (2 Bft) 0,50 h 9,8 km/h (2 Bft)
26.07.2010 15:00 24,3 C 18,3 C 5,4 UV-I 2,2 C 61 % 90 % 60 % 1015,6 hPa 0,0 l/m 6,5 km/h (2 Bft) 0,37 h 10,4 km/h (2 Bft)
26.07.2010 16:00 24,3 C 18,3 C 2,4 UV-I 0,9 C 60 % 88 % 26 % 1015,7 hPa 1,0 l/m 3,2 km/h (1 Bft) 0,00 h 5,8 km/h (2 Bft)
26.07.2010 17:00 24,2 C 17,8 C 2,9 UV-I 1,0 C 60 % 89 % 29 % 1015,7 hPa 2,3 l/m 5,1 km/h (1 Bft) 0,00 h 8,1 km/h (2 Bft)
26.07.2010 18:00 24,0 C 17,0 C 1,9 UV-I 0,3 C 60 % 91 % 9 % 1015,8 hPa 0,2 l/m 2,6 km/h (1 Bft) 0,00 h 3,7 km/h (1 Bft)
26.07.2010 19:00 23,9 C 17,1 C 1,3 UV-I 0,2 C 60 % 91 % 4 % 1016,0 hPa 0,0 l/m 1,0 km/h (0 Bft) 0,00 h 1,7 km/h (1 Bft)
26.07.2010 20:00 23,6 C 16,8 C 0,7 UV-I 0,0 C 60 % 91 % 0 % 1016,3 hPa 0,0 l/m 2,3 km/h (1 Bft) 0,00 h 6,1 km/h (2 Bft)
26.07.2010 21:00 23,2 C 16,4 C 0,0 UV-I 0,0 C 61 % 91 % 0 % 1016,7 hPa 0,4 l/m 3,7 km/h (1 Bft) 0,00 h 6,7 km/h (2 Bft)
26.07.2010 22:00 22,9 C 15,9 C 0,1 UV-I 0,0 C 61 % 92 % 0 % 1017,2 hPa 0,0 l/m 1,8 km/h (1 Bft) 0,00 h 3,7 km/h (1 Bft)
26.07.2010 23:00 22,6 C 15,1 C 0,0 UV-I 0,0 C 62 % 92 % 0 % 1017,4 hPa 0,0 l/m 0,3 km/h (0 Bft) 0,00 h 0,6 km/h (0 Bft)
27.07.2010 00:00 22,5 C 14,7 C 0,1 UV-I 0,0 C 62 % 93 % 0 % 1017,7 hPa 0,0 l/m 0,3 km/h (0 Bft) 0,00 h 0,9 km/h (0 Bft)
27.07.2010 01:00 22,3 C 14,4 C 0,1 UV-I 0,0 C 62 % 94 % 0 % 1017,9 hPa 0,0 l/m 0,6 km/h (0 Bft) 0,00 h 0,8 km/h (0 Bft)
27.07.2010 02:00 22,2 C 14,5 C 0,0 UV-I 0,0 C 62 % 94 % 0 % 1018,1 hPa 0,0 l/m 0,0 km/h (0 Bft) 0,00 h 0,2 km/h (0 Bft)
27.07.2010 03:00 22,3 C 14,5 C 0,0 UV-I 0,0 C 61 % 94 % 0 % 1018,3 hPa 0,0 l/m 0,3 km/h (0 Bft) 0,00 h 1,2 km/h (1 Bft)
27.07.2010 04:00 22,2 C 14,1 C 0,0 UV-I 0,0 C 61 % 94 % 0 % 1018,4 hPa 0,0 l/m 0,4 km/h (0 Bft) 0,00 h 1,5 km/h (1 Bft)
27.07.2010 05:00 22,0 C 13,8 C 0,1 UV-I 0,0 C 61 % 94 % 0 % 1018,5 hPa 0,0 l/m 0,0 km/h (0 Bft) 0,00 h 0,2 km/h (0 Bft)
27.07.2010 06:00 21,7 C 13,5 C 0,5 UV-I 0,0 C 61 % 94 % 0 % 1019,1 hPa 0,0 l/m 0,0 km/h (0 Bft) 0,00 h 0,0 km/h (0 Bft)
27.07.2010 07:00 21,8 C 14,1 C 1,6 UV-I 0,1 C 61 % 95 % 2 % 1019,7 hPa 0,0 l/m 1,1 km/h (1 Bft) 0,00 h 2,0 km/h (1 Bft)
27.07.2010 08:00 22,1 C 15,5 C 3,3 UV-I 2,5 C 61 % 93 % 60 % 1020,1 hPa 0,0 l/m 1,6 km/h (1 Bft) 0,33 h 4,1 km/h (1 Bft)
27.07.2010 09:00 22,3 C 17,1 C 7,4 UV-I 5,6 C 61 % 89 % 99 % 1020,5 hPa 0,0 l/m 1,6 km/h (1 Bft) 0,85 h 3,1 km/h (1 Bft)
27.07.2010 10:00 22,5 C 18,3 C 7,5 UV-I 4,3 C 61 % 85 % 90 % 1021,0 hPa 0,0 l/m 2,7 km/h (1 Bft) 0,67 h 5,3 km/h (1 Bft)
27.07.2010 11:00 22,8 C 19,1 C 7,2 UV-I 3,9 C 60 % 79 % 90 % 1020,9 hPa 0,0 l/m 2,4 km/h (1 Bft) 0,60 h 4,8 km/h (1 Bft)
27.07.2010 12:00 23,1 C 20,2 C 7,2 UV-I 4,1 C 59 % 71 % 93 % 1021,3 hPa 0,0 l/m 4,0 km/h (1 Bft) 0,63 h 5,4 km/h (1 Bft)
27.07.2010 13:00 23,3 C 21,2 C 6,5 UV-I 3,6 C 57 % 65 % 91 % 1021,2 hPa 0,0 l/m 2,1 km/h (1 Bft) 0,47 h 5,1 km/h (1 Bft)
27.07.2010 14:00 24,1 C 22,4 C 7,3 UV-I 3,9 C 53 % 59 % 95 % 1021,8 hPa 0,0 l/m 3,8 km/h (1 Bft) 0,75 h 6,3 km/h (2 Bft)
27.07.2010 15:00 25,4 C 23,3 C 8,1 UV-I 4,2 C 49 % 54 % 96 % 1022,5 hPa 0,0 l/m 5,2 km/h (1 Bft) 0,83 h 8,2 km/h (2 Bft)
27.07.2010 16:00 26,3 C 23,4 C 9,0 UV-I 3,5 C 46 % 53 % 90 % 1022,9 hPa 0,0 l/m 3,9 km/h (1 Bft) 0,63 h 5,4 km/h (1 Bft)
27.07.2010 17:00 26,5 C 23,2 C 5,5 UV-I 2,8 C 46 % 53 % 77 % 1022,6 hPa 0,0 l/m 3,7 km/h (1 Bft) 0,32 h 4,6 km/h (1 Bft)
27.07.2010 18:00 25,8 C 21,9 C 2,2 UV-I 0,7 C 48 % 61 % 20 % 1021,6 hPa 0,0 l/m 4,2 km/h (1 Bft) 0,00 h 6,6 km/h (2 Bft)
27.07.2010 19:00 25,0 C 21,1 C 1,1 UV-I 0,4 C 50 % 66 % 10 % 1021,0 hPa 0,0 l/m 2,6 km/h (1 Bft) 0,00 h 4,5 km/h (1 Bft)
27.07.2010 20:00 24,4 C 20,3 C 0,1 UV-I 0,0 C 53 % 69 % 0 % 1020,7 hPa 0,0 l/m 1,6 km/h (1 Bft) 0,00 h 2,9 km/h (1 Bft)
27.07.2010 21:00 24,0 C 19,5 C 0,0 UV-I 0,0 C 54 % 73 % 0 % 1020,4 hPa 0,0 l/m 0,1 km/h (0 Bft) 0,00 h 0,6 km/h (0 Bft)
27.07.2010 22:00 23,7 C 18,7 C 0,0 UV-I 0,0 C 56 % 76 % 0 % 1020,6 hPa 0,0 l/m 0,0 km/h (0 Bft) 0,00 h 0,2 km/h (0 Bft)
27.07.2010 23:00 23,6 C 17,7 C 0,0 UV-I 0,0 C 57 % 80 % 0 % 1020,4 hPa 0,0 l/m 0,0 km/h (0 Bft) 0,00 h 0,0 km/h (0 Bft)
28.07.2010 00:00 23,3 C 17,9 C 0,0 UV-I 0,0 C 58 % 81 % 0 % 1020,3 hPa 0,0 l/m 0,5 km/h (0 Bft) 0,00 h 1,2 km/h (1 Bft)
28.07.2010 01:00 23,1 C 18,1 C 0,0 UV-I 0,0 C 59 % 83 % 0 % 1020,0 hPa 0,5 l/m 1,2 km/h (1 Bft) 0,00 h 3,5 km/h (1 Bft)
28.07.2010 02:00 23,0 C 17,6 C 0,0 UV-I 0,0 C 63 % 89 % 0 % 1019,5 hPa 0,2 l/m 0,9 km/h (0 Bft) 0,00 h 2,6 km/h (1 Bft)
28.07.2010 03:00 23,0 C 17,5 C 0,0 UV-I 0,0 C 64 % 90 % 0 % 1018,8 hPa 0,0 l/m 1,2 km/h (1 Bft) 0,00 h 3,2 km/h (1 Bft)
28.07.2010 04:00 22,9 C 17,6 C 0,0 UV-I 0,0 C 64 % 90 % 0 % 1018,1 hPa 0,0 l/m 1,1 km/h (1 Bft) 0,00 h 2,7 km/h (1 Bft)
28.07.2010 05:00 22,8 C 17,6 C 0,0 UV-I 0,0 C 64 % 90 % 0 % 1017,6 hPa 0,0 l/m 0,9 km/h (0 Bft) 0,00 h 1,9 km/h (1 Bft)
28.07.2010 06:00 22,6 C 17,8 C 0,0 UV-I 0,0 C 65 % 90 % 0 % 1017,7 hPa 0,0 l/m 1,9 km/h (1 Bft) 0,00 h 4,9 km/h (1 Bft)
28.07.2010 07:00 22,6 C 18,1 C 0,1 UV-I 0,0 C 65 % 90 % 0 % 1017,9 hPa 0,0 l/m 3,2 km/h (1 Bft) 0,00 h 6,5 km/h (2 Bft)
28.07.2010 08:00 22,8 C 18,5 C 0,7 UV-I 0,3 C 65 % 89 % 7 % 1018,2 hPa 0,0 l/m 4,6 km/h (1 Bft) 0,00 h 8,3 km/h (2 Bft)
28.07.2010 09:00 23,0 C 19,2 C 4,4 UV-I 2,1 C 64 % 86 % 53 % 1018,3 hPa 0,0 l/m 5,8 km/h (1 Bft) 0,20 h 7,8 km/h (2 Bft)
28.07.2010 10:00 23,3 C 20,7 C 9,4 UV-I 4,6 C 63 % 80 % 99 % 1018,5 hPa 0,0 l/m 6,7 km/h (2 Bft) 0,67 h 8,9 km/h (2 Bft)
28.07.2010 11:00 23,6 C 22,1 C 13,0 UV-I 5,8 C 62 % 72 % 100 % 1018,6 hPa 0,0 l/m 8,3 km/h (2 Bft) 0,63 h 10,7 km/h (2 Bft)
28.07.2010 12:00 23,9 C 23,0 C 7,0 UV-I 4,4 C 60 % 63 % 98 % 1018,7 hPa 0,0 l/m 8,1 km/h (2 Bft) 0,60 h 12,6 km/h (3 Bft)
28.07.2010 13:00 24,3 C 23,9 C 8,1 UV-I 4,6 C 57 % 55 % 99 % 1018,7 hPa 0,0 l/m 6,3 km/h (2 Bft) 0,67 h 8,7 km/h (2 Bft)
28.07.2010 14:00 25,1 C 24,3 C 7,4 UV-I 4,0 C 53 % 53 % 95 % 1018,7 hPa 0,0 l/m 8,6 km/h (2 Bft) 0,87 h 12,0 km/h (2 Bft)
28.07.2010 15:00 26,1 C 24,5 C 7,4 UV-I 3,6 C 51 % 54 % 86 % 1018,9 hPa 0,0 l/m 6,7 km/h (2 Bft) 0,60 h 8,4 km/h (2 Bft)
28.07.2010 16:00 26,1 C 23,3 C 4,0 UV-I 1,4 C 50 % 59 % 41 % 1018,3 hPa 0,0 l/m 8,7 km/h (2 Bft) 0,03 h 12,6 km/h (3 Bft)
28.07.2010 17:00 25,9 C 23,3 C 5,2 UV-I 2,6 C 51 % 58 % 71 % 1017,4 hPa 0,0 l/m 6,9 km/h (2 Bft) 0,27 h 11,6 km/h (2 Bft)
28.07.2010 18:00 25,8 C 22,7 C 2,5 UV-I 1,1 C 50 % 58 % 32 % 1017,3 hPa 0,0 l/m 5,3 km/h (1 Bft) 0,00 h 9,5 km/h (2 Bft)
28.07.2010 19:00 25,4 C 22,3 C 1,9 UV-I 0,4 C 51 % 60 % 12 % 1016,5 hPa 0,0 l/m 5,0 km/h (1 Bft) 0,00 h 6,4 km/h (2 Bft)
28.07.2010 20:00 25,0 C 21,5 C 0,5 UV-I 0,0 C 52 % 61 % 0 % 1016,4 hPa 0,0 l/m 3,2 km/h (1 Bft) 0,00 h 6,0 km/h (2 Bft)
28.07.2010 21:00 24,5 C 19,7 C 0,0 UV-I 0,0 C 52 % 65 % 0 % 1016,3 hPa 0,0 l/m 1,4 km/h (1 Bft) 0,00 h 1,9 km/h (1 Bft)
28.07.2010 22:00 24,1 C 17,8 C 0,0 UV-I 0,0 C 53 % 72 % 0 % 1016,5 hPa 0,0 l/m 0,1 km/h (0 Bft) 0,00 h 0,0 km/h (0 Bft)
28.07.2010 23:00 23,8 C 16,6 C 0,0 UV-I 0,0 C 54 % 77 % 0 % 1016,4 hPa 0,0 l/m 0,1 km/h (0 Bft) 0,00 h 0,5 km/h (0 Bft)
29.07.2010 00:00 23,7 C 15,5 C 0,0 UV-I 0,0 C 55 % 81 % 0 % 1016,1 hPa 0,0 l/m 0,1 km/h (0 Bft) 0,00 h 0,4 km/h (0 Bft)
29.07.2010 01:00 23,5 C 15,0 C 0,0 UV-I 0,0 C 55 % 83 % 0 % 1015,8 hPa 0,0 l/m 0,1 km/h (0 Bft) 0,00 h 0,6 km/h (0 Bft)
29.07.2010 02:00 23,4 C 15,0 C 0,0 UV-I 0,0 C 56 % 85 % 0 % 1015,5 hPa 0,0 l/m 0,2 km/h (0 Bft) 0,00 h 0,9 km/h (0 Bft)
29.07.2010 03:00 23,3 C 15,3 C 0,0 UV-I 0,0 C 56 % 85 % 0 % 1015,1 hPa 0,0 l/m 1,6 km/h (1 Bft) 0,00 h 4,8 km/h (1 Bft)
29.07.2010 04:00 23,2 C 15,0 C 0,0 UV-I 0,0 C 57 % 87 % 0 % 1014,6 hPa 0,4 l/m 0,4 km/h (0 Bft) 0,00 h 0,9 km/h (0 Bft)
29.07.2010 05:00 23,2 C 14,5 C 0,0 UV-I 0,0 C 57 % 90 % 0 % 1013,9 hPa 0,1 l/m 0,1 km/h (0 Bft) 0,00 h 0,8 km/h (0 Bft)
29.07.2010 06:00 23,1 C 14,4 C 0,2 UV-I 0,0 C 58 % 92 % 0 % 1014,1 hPa 0,1 l/m 0,5 km/h (0 Bft) 0,00 h 1,8 km/h (1 Bft)
29.07.2010 07:00 23,0 C 14,3 C 0,1 UV-I 0,0 C 58 % 92 % 0 % 1014,4 hPa 0,0 l/m 0,4 km/h (0 Bft) 0,00 h 1,4 km/h (1 Bft)
29.07.2010 08:00 23,0 C 14,5 C 0,9 UV-I 0,1 C 58 % 91 % 3 % 1014,6 hPa 0,0 l/m 0,7 km/h (0 Bft) 0,00 h 2,0 km/h (1 Bft)
29.07.2010 09:00 23,2 C 15,4 C 2,5 UV-I 1,1 C 58 % 89 % 31 % 1014,8 hPa 0,0 l/m 2,1 km/h (1 Bft) 0,00 h 5,7 km/h (1 Bft)
29.07.2010 10:00 23,4 C 16,7 C 4,1 UV-I 2,5 C 57 % 83 % 71 % 1014,8 hPa 0,0 l/m 3,8 km/h (1 Bft) 0,20 h 5,6 km/h (1 Bft)
29.07.2010 11:00 23,6 C 17,3 C 6,1 UV-I 2,6 C 56 % 80 % 62 % 1015,1 hPa 0,0 l/m 3,7 km/h (1 Bft) 0,27 h 6,7 km/h (2 Bft)
29.07.2010 12:00 23,9 C 18,8 C 7,4 UV-I 4,2 C 56 % 74 % 91 % 1015,0 hPa 0,0 l/m 5,4 km/h (1 Bft) 0,67 h 8,3 km/h (2 Bft)
29.07.2010 13:00 24,1 C 17,7 C 6,5 UV-I 2,2 C 55 % 82 % 50 % 1015,2 hPa 5,3 l/m 5,3 km/h (1 Bft) 0,37 h 8,5 km/h (2 Bft)
29.07.2010 14:00 24,4 C 17,4 C 5,6 UV-I 1,9 C 56 % 87 % 54 % 1015,3 hPa 0,2 l/m 4,6 km/h (1 Bft) 0,03 h 6,5 km/h (2 Bft)
29.07.2010 15:00 24,5 C 17,4 C 2,3 UV-I 0,8 C 55 % 85 % 22 % 1015,5 hPa 4,5 l/m 4,1 km/h (1 Bft) 0,03 h 5,7 km/h (1 Bft)
29.07.2010 16:00 24,5 C 17,4 C 4,8 UV-I 2,1 C 56 % 87 % 60 % 1015,5 hPa 0,0 l/m 3,2 km/h (1 Bft) 0,20 h 5,8 km/h (2 Bft)
29.07.2010 17:00 24,6 C 17,7 C 2,7 UV-I 1,3 C 56 % 80 % 37 % 1015,7 hPa 0,3 l/m 6,9 km/h (2 Bft) 0,00 h 10,7 km/h (2 Bft)
29.07.2010 18:00 24,3 C 16,5 C 2,1 UV-I 0,3 C 56 % 84 % 9 % 1015,5 hPa 0,0 l/m 4,5 km/h (1 Bft) 0,00 h 6,4 km/h (2 Bft)
29.07.2010 19:00 24,1 C 16,8 C 1,1 UV-I 0,1 C 56 % 85 % 4 % 1015,5 hPa 0,0 l/m 0,9 km/h (0 Bft) 0,00 h 1,1 km/h (1 Bft)
29.07.2010 20:00 23,9 C 16,0 C 0,2 UV-I 0,0 C 56 % 87 % 0 % 1015,8 hPa 15,4 l/m 3,9 km/h (1 Bft) 0,00 h 5,2 km/h (1 Bft)
29.07.2010 21:00 23,6 C 14,9 C 0,0 UV-I 0,0 C 57 % 91 % 0 % 1016,0 hPa 0,0 l/m 0,0 km/h (0 Bft) 0,00 h 0,0 km/h (0 Bft)
29.07.2010 22:00 23,4 C 14,8 C 0,0 UV-I 0,0 C 58 % 92 % 0 % 1016,0 hPa 0,3 l/m 0,0 km/h (0 Bft) 0,00 h 0,0 km/h (0 Bft)
29.07.2010 23:00 23,1 C 14,9 C 0,0 UV-I 0,0 C 59 % 93 % 0 % 1016,0 hPa 0,0 l/m 0,0 km/h (0 Bft) 0,00 h 0,0 km/h (0 Bft)
30.07.2010 00:00 22,8 C 14,6 C 0,0 UV-I 0,0 C 60 % 94 % 0 % 1016,2 hPa 0,0 l/m 0,0 km/h (0 Bft) 0,00 h 0,0 km/h (0 Bft)
30.07.2010 01:00 22,8 C 14,5 C 0,0 UV-I 0,0 C 60 % 94 % 0 % 1016,1 hPa 0,0 l/m 0,0 km/h (0 Bft) 0,00 h 0,0 km/h (0 Bft)
30.07.2010 02:00 22,6 C 14,4 C 0,0 UV-I 0,0 C 61 % 94 % 0 % 1016,1 hPa 0,0 l/m 0,0 km/h (0 Bft) 0,00 h 0,0 km/h (0 Bft)
30.07.2010 03:00 22,3 C 14,0 C 0,0 UV-I 0,0 C 61 % 94 % 0 % 1015,9 hPa 0,0 l/m 0,0 km/h (0 Bft) 0,00 h 0,2 km/h (0 Bft)
30.07.2010 04:00 22,1 C 13,6 C 0,0 UV-I 0,0 C 61 % 94 % 0 % 1015,8 hPa 0,0 l/m 0,0 km/h (0 Bft) 0,00 h 0,4 km/h (0 Bft)
30.07.2010 05:00 22,0 C 13,2 C 0,0 UV-I 0,0 C 62 % 94 % 0 % 1015,9 hPa 0,0 l/m 0,0 km/h (0 Bft) 0,00 h 0,0 km/h (0 Bft)
30.07.2010 06:00 21,9 C 13,1 C 0,0 UV-I 0,0 C 61 % 95 % 0 % 1016,2 hPa 0,0 l/m 0,0 km/h (0 Bft) 0,00 h 0,0 km/h (0 Bft)
30.07.2010 07:00 21,9 C 13,8 C 0,8 UV-I 0,1 C 61 % 95 % 4 % 1016,8 hPa 0,0 l/m 0,1 km/h (0 Bft) 0,00 h 0,0 km/h (0 Bft)
30.07.2010 08:00 22,1 C 15,2 C 1,7 UV-I 1,1 C 62 % 95 % 32 % 1017,2 hPa 0,0 l/m 0,2 km/h (0 Bft) 0,00 h 0,8 km/h (0 Bft)
30.07.2010 09:00 22,3 C 16,4 C 4,1 UV-I 3,1 C 61 % 93 % 70 % 1017,7 hPa 0,0 l/m 1,5 km/h (1 Bft) 0,50 h 2,8 km/h (1 Bft)
30.07.2010 10:00 22,5 C 17,5 C 5,2 UV-I 3,2 C 61 % 87 % 75 % 1017,9 hPa 0,0 l/m 0,7 km/h (0 Bft) 0,43 h 1,3 km/h (1 Bft)
30.07.2010 11:00 22,8 C 18,9 C 9,3 UV-I 5,5 C 60 % 80 % 97 % 1017,7 hPa 0,0 l/m 2,8 km/h (1 Bft) 0,90 h 5,3 km/h (1 Bft)
30.07.2010 12:00 23,1 C 20,1 C 9,9 UV-I 5,8 C 59 % 73 % 100 % 1017,9 hPa 0,0 l/m 3,8 km/h (1 Bft) 0,97 h 6,5 km/h (2 Bft)
30.07.2010 13:00 23,6 C 21,6 C 7,6 UV-I 4,2 C 56 % 63 % 97 % 1018,1 hPa 0,0 l/m 4,2 km/h (1 Bft) 0,83 h 7,3 km/h (2 Bft)
30.07.2010 14:00 24,1 C 21,9 C 6,1 UV-I 2,6 C 54 % 61 % 72 % 1018,4 hPa 0,0 l/m 4,2 km/h (1 Bft) 0,27 h 6,1 km/h (2 Bft)
30.07.2010 15:00 25,2 C 23,5 C 8,3 UV-I 4,3 C 50 % 54 % 95 % 1019,6 hPa 0,0 l/m 4,1 km/h (1 Bft) 0,75 h 5,3 km/h (1 Bft)
30.07.2010 16:00 26,1 C 23,8 C 8,5 UV-I 3,5 C 48 % 51 % 92 % 1020,2 hPa 0,0 l/m 3,6 km/h (1 Bft) 0,77 h 5,1 km/h (1 Bft)
30.07.2010 17:00 26,4 C 23,6 C 5,0 UV-I 2,6 C 47 % 52 % 64 % 1020,1 hPa 0,0 l/m 1,8 km/h (1 Bft) 0,33 h 3,2 km/h (1 Bft)
30.07.2010 18:00 26,0 C 23,2 C 3,4 UV-I 2,5 C 48 % 51 % 62 % 1019,3 hPa 0,0 l/m 2,2 km/h (1 Bft) 0,23 h 5,3 km/h (1 Bft)
30.07.2010 19:00 25,4 C 22,9 C 2,2 UV-I 0,3 C 49 % 53 % 7 % 1018,7 hPa 0,0 l/m 1,7 km/h (1 Bft) 0,00 h 3,5 km/h (1 Bft)
30.07.2010 20:00 24,9 C 21,8 C 0,8 UV-I 0,0 C 50 % 56 % 0 % 1018,3 hPa 0,0 l/m 0,1 km/h (0 Bft) 0,00 h 0,0 km/h (0 Bft)
30.07.2010 21:00 24,4 C 20,0 C 0,1 UV-I 0,0 C 52 % 63 % 0 % 1018,2 hPa 0,0 l/m 0,0 km/h (0 Bft) 0,00 h 0,0 km/h (0 Bft)
30.07.2010 22:00 24,0 C 18,2 C 0,0 UV-I 0,0 C 53 % 69 % 0 % 1018,3 hPa 0,0 l/m 0,0 km/h (0 Bft) 0,00 h 0,3 km/h (0 Bft)
30.07.2010 23:00 23,7 C 17,2 C 0,0 UV-I 0,0 C 54 % 71 % 0 % 1018,1 hPa 0,0 l/m 0,8 km/h (0 Bft) 0,00 h 2,0 km/h (1 Bft)
31.07.2010 00:00 23,7 C 16,6 C 0,0 UV-I 0,0 C 54 % 73 % 0 % 1018,3 hPa 0,0 l/m 1,2 km/h (1 Bft) 0,00 h 2,8 km/h (1 Bft)
31.07.2010 01:00 23,6 C 16,1 C 0,0 UV-I 0,0 C 54 % 75 % 0 % 1018,1 hPa 0,0 l/m 1,7 km/h (1 Bft) 0,00 h 4,1 km/h (1 Bft)
31.07.2010 02:00 23,6 C 15,5 C 0,0 UV-I 0,0 C 54 % 76 % 0 % 1018,1 hPa 0,0 l/m 2,4 km/h (1 Bft) 0,00 h 4,1 km/h (1 Bft)
31.07.2010 03:00 23,4 C 14,5 C 0,0 UV-I 0,0 C 54 % 80 % 0 % 1017,8 hPa 0,0 l/m 2,7 km/h (1 Bft) 0,00 h 5,1 km/h (1 Bft)
31.07.2010 04:00 23,2 C 14,0 C 0,0 UV-I 0,0 C 54 % 83 % 0 % 1017,4 hPa 0,0 l/m 4,1 km/h (1 Bft) 0,00 h 5,5 km/h (1 Bft)
31.07.2010 05:00 23,2 C 14,0 C 0,0 UV-I 0,0 C 54 % 84 % 0 % 1017,2 hPa 0,0 l/m 4,2 km/h (1 Bft) 0,00 h 6,5 km/h (2 Bft)
31.07.2010 06:00 23,1 C 14,3 C 0,1 UV-I 0,0 C 54 % 83 % 0 % 1017,1 hPa 0,0 l/m 4,1 km/h (1 Bft) 0,00 h 6,0 km/h (2 Bft)
31.07.2010 07:00 23,2 C 15,0 C 0,8 UV-I 0,2 C 53 % 82 % 7 % 1017,4 hPa 0,0 l/m 2,4 km/h (1 Bft) 0,00 h 3,8 km/h (1 Bft)
31.07.2010 08:00 23,2 C 15,9 C 1,3 UV-I 0,5 C 54 % 81 % 15 % 1018,0 hPa 0,0 l/m 1,3 km/h (1 Bft) 0,00 h 2,6 km/h (1 Bft)
31.07.2010 09:00 23,4 C 17,2 C 1,7 UV-I 0,6 C 54 % 80 % 18 % 1017,9 hPa 0,0 l/m 3,1 km/h (1 Bft) 0,00 h 4,3 km/h (1 Bft)
31.07.2010 10:00 23,5 C 19,3 C 0,6 UV-I 1,2 C 53 % 70 % 35 % 1017,9 hPa 0,0 l/m 3,8 km/h (1 Bft) 0,00 h 5,5 km/h (1 Bft)
31.07.2010 11:00 23,6 C 21,5 C 0,0 UV-I 1,4 C 53 % 63 % 39 % 1017,7 hPa 0,0 l/m 2,3 km/h (1 Bft) 0,00 h 2,0 km/h (1 Bft)
31.07.2010 12:00 24,1 C 23,5 C 6,6 UV-I 3,8 C 52 % 55 % 93 % 1017,7 hPa 0,0 l/m 7,4 km/h (2 Bft) 0,80 h 11,1 km/h (2 Bft)
31.07.2010 13:00 24,4 C 24,3 C 5,4 UV-I 2,7 C 51 % 53 % 77 % 1017,5 hPa 0,0 l/m 4,5 km/h (1 Bft) 0,33 h 6,4 km/h (2 Bft)
31.07.2010 14:00 24,6 C 24,1 C 4,3 UV-I 1,9 C 51 % 55 % 56 % 1017,3 hPa 0,0 l/m 1,6 km/h (1 Bft) 0,13 h 1,4 km/h (1 Bft)
31.07.2010 15:00 25,3 C 25,8 C 8,3 UV-I 3,8 C 50 % 51 % 92 % 1017,6 hPa 0,0 l/m 5,0 km/h (1 Bft) 0,73 h 5,7 km/h (1 Bft)
31.07.2010 16:00 25,7 C 25,8 C 5,2 UV-I 2,2 C 48 % 49 % 64 % 1017,3 hPa 0,0 l/m 4,5 km/h (1 Bft) 0,27 h 4,8 km/h (1 Bft)
31.07.2010 17:00 25,7 C 25,5 C 2,5 UV-I 1,0 C 49 % 52 % 29 % 1016,8 hPa 0,0 l/m 1,4 km/h (1 Bft) 0,00 h 2,3 km/h (1 Bft)
31.07.2010 18:00 25,2 C 23,2 C 0,9 UV-I 0,0 C 52 % 62 % 1 % 1016,9 hPa 0,0 l/m 4,4 km/h (1 Bft) 0,00 h 6,2 km/h (2 Bft)
31.07.2010 19:00 24,7 C 22,4 C 1,5 UV-I 0,1 C 54 % 64 % 2 % 1016,5 hPa 0,0 l/m 1,6 km/h (1 Bft) 0,00 h 2,7 km/h (1 Bft)
31.07.2010 20:00 24,6 C 22,8 C 0,8 UV-I 0,1 C 54 % 64 % 2 % 1016,5 hPa 0,0 l/m 1,7 km/h (1 Bft) 0,00 h 2,1 km/h (1 Bft)
31.07.2010 21:00 24,4 C 22,0 C 0,1 UV-I 0,0 C 55 % 67 % 0 % 1016,4 hPa 0,0 l/m 1,2 km/h (1 Bft) 0,00 h 1,5 km/h (1 Bft)
31.07.2010 22:00 24,2 C 21,3 C 0,0 UV-I 0,0 C 57 % 72 % 0 % 1016,4 hPa 0,0 l/m 1,6 km/h (1 Bft) 0,00 h 2,4 km/h (1 Bft)
31.07.2010 23:00 24,0 C 20,9 C 0,0 UV-I 0,0 C 58 % 73 % 0 % 1016,4 hPa 0,0 l/m 1,8 km/h (1 Bft) 0,00 h 2,7 km/h (1 Bft)
01.08.2010 00:00 23,8 C 20,7 C 0,0 UV-I 0,0 C 57 % 71 % 0 % 1016,2 hPa 0,0 l/m 2,3 km/h (1 Bft) 0,00 h 3,7 km/h (1 Bft)
01.08.2010 01:00 23,7 C 19,7 C 0,0 UV-I 0,0 C 58 % 74 % 0 % 1015,8 hPa 0,0 l/m 1,2 km/h (1 Bft) 0,00 h 2,0 km/h (1 Bft)
01.08.2010 02:00 23,5 C 18,6 C 0,0 UV-I 0,0 C 59 % 79 % 0 % 1015,7 hPa 0,0 l/m 2,1 km/h (1 Bft) 0,00 h 3,2 km/h (1 Bft)
01.08.2010 03:00 23,3 C 17,8 C 0,0 UV-I 0,0 C 59 % 82 % 0 % 1015,5 hPa 0,0 l/m 0,9 km/h (0 Bft) 0,00 h 0,7 km/h (0 Bft)
01.08.2010 04:00 23,2 C 16,9 C 0,0 UV-I 0,0 C 59 % 85 % 0 % 1015,4 hPa 0,0 l/m 0,0 km/h (0 Bft) 0,00 h 0,3 km/h (0 Bft)
01.08.2010 05:00 23,1 C 16,2 C 0,0 UV-I 0,0 C 60 % 87 % 0 % 1015,6 hPa 0,0 l/m 0,1 km/h (0 Bft) 0,00 h 0,1 km/h (0 Bft)
01.08.2010 06:00 23,0 C 16,0 C 0,0 UV-I 0,0 C 60 % 89 % 0 % 1015,5 hPa 0,0 l/m 0,0 km/h (0 Bft) 0,00 h 0,0 km/h (0 Bft)
01.08.2010 07:00 23,0 C 16,7 C 0,4 UV-I 0,3 C 61 % 89 % 8 % 1015,8 hPa 0,0 l/m 0,2 km/h (0 Bft) 0,00 h 0,3 km/h (0 Bft)
01.08.2010 08:00 23,2 C 17,9 C 1,4 UV-I 0,8 C 60 % 87 % 22 % 1016,1 hPa 0,0 l/m 0,2 km/h (0 Bft) 0,00 h 0,4 km/h (0 Bft)
01.08.2010 09:00 23,5 C 19,5 C 3,3 UV-I 2,7 C 60 % 83 % 76 % 1016,3 hPa 0,0 l/m 1,7 km/h (1 Bft) 0,43 h 2,5 km/h (1 Bft)
01.08.2010 10:00 23,7 C 20,9 C 5,3 UV-I 4,1 C 60 % 78 % 98 % 1016,4 hPa 0,0 l/m 1,5 km/h (1 Bft) 1,00 h 1,8 km/h (1 Bft)
01.08.2010 11:00 24,1 C 22,7 C 8,1 UV-I 5,9 C 59 % 73 % 100 % 1016,7 hPa 0,0 l/m 4,1 km/h (1 Bft) 0,97 h 5,9 km/h (2 Bft)
01.08.2010 12:00 24,5 C 23,7 C 5,6 UV-I 5,0 C 59 % 70 % 100 % 1016,9 hPa 0,0 l/m 3,2 km/h (1 Bft) 1,00 h 4,6 km/h (1 Bft)
01.08.2010 13:00 24,8 C 24,5 C 6,5 UV-I 4,6 C 58 % 65 % 100 % 1016,8 hPa 0,0 l/m 5,2 km/h (1 Bft) 1,00 h 5,9 km/h (2 Bft)
01.08.2010 14:00 25,5 C 25,6 C 8,6 UV-I 5,1 C 56 % 60 % 100 % 1017,5 hPa 0,0 l/m 5,9 km/h (2 Bft) 0,97 h 7,7 km/h (2 Bft)
01.08.2010 15:00 26,3 C 25,7 C 9,6 UV-I 4,4 C 54 % 59 % 100 % 1017,6 hPa 0,0 l/m 5,9 km/h (2 Bft) 0,97 h 6,1 km/h (2 Bft)
01.08.2010 16:00 27,2 C 25,7 C 9,6 UV-I 4,3 C 51 % 55 % 93 % 1018,5 hPa 0,0 l/m 7,2 km/h (2 Bft) 0,77 h 8,1 km/h (2 Bft)
01.08.2010 17:00 26,9 C 24,3 C 3,1 UV-I 1,3 C 51 % 56 % 37 % 1017,4 hPa 0,0 l/m 5,6 km/h (1 Bft) 0,00 h 6,9 km/h (2 Bft)
01.08.2010 18:00 26,1 C 23,1 C 1,1 UV-I 0,1 C 52 % 59 % 4 % 1016,8 hPa 0,0 l/m 4,7 km/h (1 Bft) 0,00 h 6,3 km/h (2 Bft)
01.08.2010 19:00 25,5 C 22,3 C 0,6 UV-I 0,0 C 53 % 61 % 0 % 1017,0 hPa 0,0 l/m 2,9 km/h (1 Bft) 0,00 h 3,5 km/h (1 Bft)
01.08.2010 20:00 25,1 C 21,4 C 0,2 UV-I 0,0 C 54 % 66 % 0 % 1017,4 hPa 0,0 l/m 2,0 km/h (1 Bft) 0,00 h 2,3 km/h (1 Bft)
01.08.2010 21:00 24,8 C 20,3 C 0,0 UV-I 0,0 C 56 % 70 % 0 % 1017,7 hPa 0,0 l/m 0,4 km/h (0 Bft) 0,00 h 0,5 km/h (0 Bft)
01.08.2010 22:00 24,6 C 19,5 C 0,0 UV-I 0,0 C 57 % 72 % 0 % 1017,8 hPa 0,0 l/m 1,5 km/h (1 Bft) 0,00 h 1,8 km/h (1 Bft)
01.08.2010 23:00 24,4 C 18,4 C 0,0 UV-I 0,0 C 57 % 76 % 0 % 1018,1 hPa 0,0 l/m 0,1 km/h (0 Bft) 0,00 h 0,1 km/h (0 Bft)
Min-Datum _ 27.07.10 30.07.10 26.07.10 26.07.10 27.07.10 31.07.10 26.07.10 29.07.10 - 26.07.10 - 26.07.10
_ Min-Zeit 06:52 05:58 00:00 00:00 16:54 16:06 00:00 05:28 - 00:06 - 00:00
Minimum _ 21,6 C 13,0 C 0,0 UV-I 0,0 C 45 % 47 % 0 % 1013,8 hPa - 0,0 km/h (0 Bft) - 0,0 km/h (0 Bft)
Max-Datum _ 01.08.10 31.07.10 27.07.10 27.07.10 26.07.10 26.07.10 26.07.10 27.07.10 29.07.10 29.07.10 26.07.10 29.07.10
_ Max-Zeit 16:36 16:18 10:16 09:48 10:58 06:48 13:42 15:28 20:28 20:22 13:38 17:50
Maximum _ 27,6 C 26,3 C 16,7 UV-I 8,3 C 65 % 95 % 100 % 1023,3 hPa 15,4 l/m 13,7 km/h
SW (3 Bft)
0,03 h 37,3 km/h
SW (5 Bft)
Durchschnitt _ 23,8 C 18,6 C 2,4 UV-I 1,2 C 57 % 78 % 28 % 1017,3 hPa #50,4 l/m 2,4 km/h (1 Bft) #28:58 h 3,8 km/h (1 Bft)
© 2012 W. Hausmann